createdAt,value
2023-03-02T00:00:14.661Z,4.20
2023-03-02T00:00:47.634Z,4.20
2023-03-02T00:01:20.897Z,4.20
2023-03-02T00:01:55.926Z,4.20
2023-03-02T00:02:29.666Z,4.20
2023-03-02T00:03:02.954Z,4.20
2023-03-02T00:03:38.057Z,4.20
2023-03-02T00:04:15.159Z,4.20
2023-03-02T00:04:50.189Z,4.20
2023-03-02T00:05:22.065Z,4.20
2023-03-02T00:05:56.237Z,4.20
2023-03-02T00:06:29.534Z,4.20
2023-03-02T00:07:07.704Z,4.20
2023-03-02T00:07:40.467Z,4.20
2023-03-02T00:08:13.471Z,4.20
2023-03-02T00:08:45.904Z,4.20
2023-03-02T00:09:19.199Z,4.20
2023-03-02T00:09:53.467Z,4.10
2023-03-02T00:10:25.376Z,4.10
2023-03-02T00:11:01.155Z,4.10
2023-03-02T00:11:34.836Z,4.00
2023-03-02T00:12:07.727Z,4.00
2023-03-02T00:12:39.742Z,4.00
2023-03-02T00:13:13.591Z,4.00
2023-03-02T00:13:45.509Z,3.90
2023-03-02T00:14:17.510Z,3.90
2023-03-02T00:14:50.324Z,3.90
2023-03-02T00:15:22.259Z,3.80
2023-03-02T00:15:54.381Z,3.80
2023-03-02T00:16:27.509Z,3.80
2023-03-02T00:16:59.367Z,3.80
2023-03-02T00:17:31.175Z,3.80
2023-03-02T00:18:03.976Z,3.80
2023-03-02T00:18:35.832Z,3.80
2023-03-02T00:19:07.647Z,3.80
2023-03-02T00:19:40.481Z,3.70
2023-03-02T00:20:13.102Z,3.70
2023-03-02T00:20:44.968Z,3.70
2023-03-02T00:21:17.032Z,3.70
2023-03-02T00:21:49.793Z,3.70
2023-03-02T00:22:21.591Z,3.60
2023-03-02T00:22:53.413Z,3.70
2023-03-02T00:23:26.382Z,3.60
2023-03-02T00:23:58.290Z,3.60
2023-03-02T00:24:30.356Z,3.60
2023-03-02T00:25:04.702Z,3.60
2023-03-02T00:25:36.538Z,3.60
2023-03-02T00:26:08.366Z,3.60
2023-03-02T00:26:41.194Z,3.60
2023-03-02T00:27:12.954Z,3.60
2023-03-02T00:27:45.236Z,3.60
2023-03-02T00:28:18.025Z,3.60
2023-03-02T00:28:49.967Z,3.60
2023-03-02T00:29:21.758Z,3.60
2023-03-02T00:29:54.518Z,3.60
2023-03-02T00:30:26.300Z,3.60
2023-03-02T00:30:58.165Z,3.60
2023-03-02T00:31:31.199Z,3.60
2023-03-02T00:32:03.832Z,3.60
2023-03-02T00:32:35.904Z,3.70
2023-03-02T00:33:07.872Z,3.70
2023-03-02T00:33:40.666Z,3.70
2023-03-02T00:34:12.593Z,3.70
2023-03-02T00:34:44.406Z,3.70
2023-03-02T00:35:17.502Z,3.70
2023-03-02T00:35:49.649Z,3.70
2023-03-02T00:36:22.703Z,3.70
2023-03-02T00:36:55.460Z,3.70
2023-03-02T00:37:27.380Z,3.70
2023-03-02T00:37:59.236Z,3.70
2023-03-02T00:38:32.019Z,3.70
2023-03-02T00:39:04.497Z,3.70
2023-03-02T00:39:36.286Z,3.70
2023-03-02T00:40:12.011Z,3.60
2023-03-02T00:40:48.907Z,3.60
2023-03-02T00:41:21.532Z,3.60
2023-03-02T00:41:54.295Z,3.60
2023-03-02T00:42:26.343Z,3.60
2023-03-02T00:42:58.227Z,3.60
2023-03-02T00:43:31.002Z,3.60
2023-03-02T00:44:02.810Z,3.60
2023-03-02T00:44:34.643Z,3.60
2023-03-02T00:45:08.523Z,3.60
2023-03-02T00:45:40.534Z,3.60
2023-03-02T00:46:13.541Z,3.60
2023-03-02T00:46:45.723Z,3.70
2023-03-02T00:47:18.549Z,3.70
2023-03-02T00:47:50.351Z,3.70
2023-03-02T00:48:22.221Z,3.70
2023-03-02T00:48:55.159Z,3.70
2023-03-02T00:49:27.140Z,3.70
2023-03-02T00:49:58.921Z,3.70
2023-03-02T00:50:31.430Z,3.70
2023-03-02T00:51:04.343Z,3.70
2023-03-02T00:51:36.148Z,3.70
2023-03-02T00:52:07.979Z,3.70
2023-03-02T00:52:40.708Z,3.70
2023-03-02T00:53:12.622Z,3.70
2023-03-02T00:53:45.027Z,3.70
2023-03-02T00:54:17.834Z,3.70
2023-03-02T00:54:49.641Z,3.70
2023-03-02T00:55:22.893Z,3.60
2023-03-02T00:55:55.146Z,3.70
2023-03-02T00:56:27.943Z,3.70
2023-03-02T00:56:59.730Z,3.70
2023-03-02T00:57:31.519Z,3.60
2023-03-02T00:58:04.428Z,3.70
2023-03-02T00:58:36.853Z,3.70
2023-03-02T00:59:26.345Z,3.70
2023-03-02T00:59:59.435Z,3.70
2023-03-02T01:00:31.739Z,3.70
2023-03-02T01:01:07.474Z,3.70
2023-03-02T01:01:40.241Z,3.70
2023-03-02T01:02:12.150Z,3.70
2023-03-02T01:02:44.347Z,3.70
2023-03-02T01:03:16.405Z,3.70
2023-03-02T01:03:49.282Z,3.80
2023-03-02T01:04:21.072Z,3.70
2023-03-02T01:04:53.272Z,3.80
2023-03-02T01:05:25.227Z,3.70
2023-03-02T01:05:58.547Z,3.70
2023-03-02T01:06:30.826Z,3.70
2023-03-02T01:07:05.062Z,3.70
2023-03-02T01:07:37.800Z,3.70
2023-03-02T01:08:09.782Z,3.70
2023-03-02T01:08:41.575Z,3.70
2023-03-02T01:09:13.564Z,3.70
2023-03-02T01:09:48.332Z,3.70
2023-03-02T01:10:21.608Z,3.80
2023-03-02T01:10:54.416Z,3.80
2023-03-02T01:11:27.254Z,3.80
2023-03-02T01:11:59.447Z,3.80
2023-03-02T01:12:31.789Z,3.80
2023-03-02T01:13:03.908Z,3.80
2023-03-02T01:13:36.667Z,3.80
2023-03-02T01:14:08.459Z,3.80
2023-03-02T01:14:41.661Z,3.80
2023-03-02T01:15:14.627Z,3.80
2023-03-02T01:15:46.548Z,3.80
2023-03-02T01:16:18.749Z,3.80
2023-03-02T01:16:50.766Z,3.80
2023-03-02T01:17:25.136Z,3.80
2023-03-02T01:17:57.014Z,3.80
2023-03-02T01:18:28.970Z,3.70
2023-03-02T01:19:00.779Z,3.70
2023-03-02T01:19:34.127Z,3.70
2023-03-02T01:20:08.715Z,3.80
2023-03-02T01:20:40.541Z,3.80
2023-03-02T01:21:15.537Z,3.80
2023-03-02T01:21:47.358Z,3.80
2023-03-02T01:22:20.283Z,3.70
2023-03-02T01:22:53.043Z,3.70
2023-03-02T01:23:24.904Z,3.60
2023-03-02T01:23:57.100Z,3.60
2023-03-02T01:24:29.984Z,3.60
2023-03-02T01:25:01.785Z,3.60
2023-03-02T01:25:34.886Z,3.60
2023-03-02T01:26:08.287Z,3.50
2023-03-02T01:26:40.185Z,3.60
2023-03-02T01:27:11.975Z,3.50
2023-03-02T01:27:44.754Z,3.50
2023-03-02T01:28:16.532Z,3.50
2023-03-02T01:28:50.015Z,3.60
2023-03-02T01:29:23.082Z,3.60
2023-03-02T01:29:54.910Z,3.60
2023-03-02T01:30:26.738Z,3.50
2023-03-02T01:31:01.124Z,3.50
2023-03-02T01:31:33.014Z,3.60
2023-03-02T01:32:05.249Z,3.60
2023-03-02T01:32:38.113Z,3.60
2023-03-02T01:33:09.917Z,3.50
2023-03-02T01:33:41.769Z,3.50
2023-03-02T01:34:14.705Z,3.40
2023-03-02T01:34:46.484Z,3.40
2023-03-02T01:35:18.527Z,3.40
2023-03-02T01:35:51.384Z,3.40
2023-03-02T01:36:23.832Z,3.40
2023-03-02T01:36:55.701Z,3.40
2023-03-02T01:37:28.465Z,3.50
2023-03-02T01:38:00.278Z,3.50
2023-03-02T01:38:32.216Z,3.50
2023-03-02T01:39:05.177Z,3.60
2023-03-02T01:39:37.041Z,3.60
2023-03-02T01:40:10.951Z,3.60
2023-03-02T01:40:45.041Z,3.60
2023-03-02T01:41:17.172Z,3.60
2023-03-02T01:41:50.326Z,3.60
2023-03-02T01:42:23.105Z,3.60
2023-03-02T01:43:02.269Z,3.60
2023-03-02T01:43:34.160Z,3.60
2023-03-02T01:44:06.944Z,3.60
2023-03-02T01:44:42.876Z,3.60
2023-03-02T01:45:55.287Z,3.50
2023-03-02T01:46:31.221Z,3.50
2023-03-02T01:47:05.699Z,3.50
2023-03-02T01:47:40.643Z,3.60
2023-03-02T01:48:15.516Z,3.50
2023-03-02T01:48:50.984Z,3.50
2023-03-02T01:49:23.803Z,3.50
2023-03-02T01:49:58.862Z,3.50
2023-03-02T01:50:31.401Z,3.40
2023-03-02T01:51:06.158Z,3.40
2023-03-02T01:51:43.442Z,3.40
2023-03-02T01:52:16.298Z,3.40
2023-03-02T01:52:50.295Z,3.50
2023-03-02T01:53:24.614Z,3.40
2023-03-02T01:54:00.812Z,3.50
2023-03-02T01:54:33.640Z,3.40
2023-03-02T01:55:09.033Z,3.50
2023-03-02T01:55:41.201Z,3.40
2023-03-02T01:56:18.230Z,3.40
2023-03-02T01:56:52.835Z,3.40
2023-03-02T01:57:29.290Z,3.40
2023-03-02T01:58:03.864Z,3.40
2023-03-02T01:58:36.947Z,3.40
2023-03-02T01:59:14.223Z,3.40
2023-03-02T01:59:47.216Z,3.40
2023-03-02T02:00:22.150Z,3.40
2023-03-02T02:00:56.228Z,3.40
2023-03-02T02:01:30.159Z,3.40
2023-03-02T02:02:04.872Z,3.30
2023-03-02T02:02:36.889Z,3.30
2023-03-02T02:03:15.122Z,3.30
2023-03-02T02:03:50.220Z,3.30
2023-03-02T02:04:25.591Z,3.20
2023-03-02T02:04:58.735Z,3.20
2023-03-02T02:05:30.657Z,3.20
2023-03-02T02:06:10.294Z,3.20
2023-03-02T02:06:47.851Z,3.20
2023-03-02T02:07:19.724Z,3.10
2023-03-02T02:07:51.573Z,3.10
2023-03-02T02:08:23.982Z,3.10
2023-03-02T02:08:59.090Z,3.00
2023-03-02T02:09:34.553Z,3.00
2023-03-02T02:10:07.819Z,3.10
2023-03-02T02:10:41.300Z,3.10
2023-03-02T02:11:14.816Z,3.10
2023-03-02T02:11:46.663Z,3.10
2023-03-02T02:12:22.680Z,3.10
2023-03-02T02:12:54.495Z,3.10
2023-03-02T02:13:26.387Z,3.10
2023-03-02T02:14:01.040Z,3.10
2023-03-02T02:14:32.968Z,3.00
2023-03-02T02:15:06.104Z,3.00
2023-03-02T02:15:39.781Z,3.00
2023-03-02T02:16:11.902Z,3.00
2023-03-02T02:16:43.778Z,3.00
2023-03-02T02:17:18.668Z,3.00
2023-03-02T02:17:51.483Z,3.00
2023-03-02T02:18:23.354Z,3.00
2023-03-02T02:18:56.618Z,3.00
2023-03-02T02:19:47.234Z,3.00
2023-03-02T02:20:28.387Z,3.10
2023-03-02T02:21:01.249Z,3.10
2023-03-02T02:21:33.156Z,3.10
2023-03-02T02:22:05.082Z,3.10
2023-03-02T02:22:50.013Z,3.10
2023-03-02T02:23:27.462Z,3.10
2023-03-02T02:24:08.576Z,3.10
2023-03-02T02:24:44.977Z,3.10
2023-03-02T02:25:36.438Z,3.10
2023-03-02T02:26:13.912Z,3.10
2023-03-02T02:26:49.587Z,3.10
2023-03-02T02:27:21.762Z,3.10
2023-03-02T02:27:54.444Z,3.10
2023-03-02T02:28:31.655Z,3.10
2023-03-02T02:29:07.856Z,3.10
2023-03-02T02:29:45.409Z,3.10
2023-03-02T02:30:19.850Z,3.10
2023-03-02T02:31:03.612Z,3.10
2023-03-02T02:31:40.740Z,3.20
2023-03-02T02:32:16.190Z,3.20
2023-03-02T02:32:49.564Z,3.20
2023-03-02T02:33:25.482Z,3.20
2023-03-02T02:34:01.912Z,3.20
2023-03-02T02:34:40.037Z,3.20
2023-03-02T02:35:16.746Z,3.20
2023-03-02T02:35:52.631Z,3.20
2023-03-02T02:36:33.177Z,3.30
2023-03-02T02:37:09.232Z,3.30
2023-03-02T02:37:45.674Z,3.30
2023-03-02T02:38:21.101Z,3.30
2023-03-02T02:38:55.419Z,3.30
2023-03-02T02:39:32.801Z,3.30
2023-03-02T02:40:07.244Z,3.30
2023-03-02T02:40:47.484Z,3.30
2023-03-02T02:41:25.475Z,3.30
2023-03-02T02:42:00.421Z,3.30
2023-03-02T02:42:34.577Z,3.40
2023-03-02T02:43:08.476Z,3.30
2023-03-02T02:43:40.330Z,3.30
2023-03-02T02:44:15.947Z,3.30
2023-03-02T02:44:49.265Z,3.30
2023-03-02T02:45:24.154Z,3.30
2023-03-02T02:45:57.919Z,3.40
2023-03-02T02:46:31.183Z,3.40
2023-03-02T02:47:03.432Z,3.40
2023-03-02T02:47:35.566Z,3.40
2023-03-02T02:48:12.369Z,3.40
2023-03-02T02:48:44.352Z,3.50
2023-03-02T02:49:27.479Z,3.50
2023-03-02T02:50:00.963Z,3.40
2023-03-02T02:50:35.002Z,3.50
2023-03-02T02:51:09.123Z,3.50
2023-03-02T02:51:42.246Z,3.50
2023-03-02T02:52:17.345Z,3.50
2023-03-02T02:52:55.408Z,3.50
2023-03-02T02:53:32.819Z,3.40
2023-03-02T02:54:04.954Z,3.50
2023-03-02T02:54:37.497Z,3.40
2023-03-02T02:55:16.729Z,3.50
2023-03-02T02:55:51.721Z,3.50
2023-03-02T02:56:26.670Z,3.50
2023-03-02T02:57:00.631Z,3.40
2023-03-02T02:57:32.578Z,3.50
2023-03-02T02:58:12.532Z,3.50
2023-03-02T02:58:48.346Z,3.50
2023-03-02T02:59:23.119Z,3.50
2023-03-02T02:59:58.228Z,3.50
2023-03-02T03:00:31.028Z,3.50
2023-03-02T03:01:03.451Z,3.30
2023-03-02T03:01:35.635Z,3.30
2023-03-02T03:02:11.898Z,3.30
2023-03-02T03:02:45.807Z,3.30
2023-03-02T03:03:29.104Z,3.20
2023-03-02T03:04:04.245Z,3.20
2023-03-02T03:04:36.106Z,3.20
2023-03-02T03:05:14.083Z,3.20
2023-03-02T03:05:46.856Z,3.20
2023-03-02T03:06:23.206Z,3.20
2023-03-02T03:06:58.567Z,3.20
2023-03-02T03:07:33.275Z,3.30
2023-03-02T03:08:10.370Z,3.30
2023-03-02T03:08:54.049Z,3.30
2023-03-02T03:09:26.677Z,3.30
2023-03-02T03:10:05.011Z,3.30
2023-03-02T03:10:40.342Z,3.30
2023-03-02T03:11:14.421Z,3.30
2023-03-02T03:11:51.254Z,3.30
2023-03-02T03:12:28.963Z,3.30
2023-03-02T03:13:01.390Z,3.40
2023-03-02T03:13:33.586Z,3.40
2023-03-02T03:14:10.523Z,3.40
2023-03-02T03:14:43.236Z,3.40
2023-03-02T03:15:15.852Z,3.30
2023-03-02T03:15:49.338Z,3.40
2023-03-02T03:16:21.517Z,3.40
2023-03-02T03:16:53.678Z,3.40
2023-03-02T03:17:26.487Z,3.40
2023-03-02T03:17:58.958Z,3.40
2023-03-02T03:18:31.494Z,3.40
2023-03-02T03:19:09.447Z,3.40
2023-03-02T03:19:44.309Z,3.40
2023-03-02T03:20:17.272Z,3.40
2023-03-02T03:20:49.070Z,3.40
2023-03-02T03:21:20.948Z,3.40
2023-03-02T03:21:55.322Z,3.40
2023-03-02T03:22:27.188Z,3.40
2023-03-02T03:23:00.662Z,3.50
2023-03-02T03:23:38.006Z,3.50
2023-03-02T03:24:10.180Z,3.50
2023-03-02T03:24:43.876Z,3.50
2023-03-02T03:25:16.959Z,3.50
2023-03-02T03:25:49.037Z,3.50
2023-03-02T03:26:20.846Z,3.50
2023-03-02T03:26:55.615Z,3.50
2023-03-02T03:27:27.587Z,3.50
2023-03-02T03:27:59.375Z,3.50
2023-03-02T03:28:31.175Z,3.50
2023-03-02T03:29:04.654Z,3.50
2023-03-02T03:29:38.073Z,3.50
2023-03-02T03:30:12.049Z,3.60
2023-03-02T03:30:45.182Z,3.50
2023-03-02T03:31:17.227Z,3.60
2023-03-02T03:31:49.042Z,3.60
2023-03-02T03:32:22.301Z,3.60
2023-03-02T03:32:54.157Z,3.60
2023-03-02T03:33:26.252Z,3.60
2023-03-02T03:34:00.528Z,3.60
2023-03-02T03:34:40.444Z,3.60
2023-03-02T03:35:12.746Z,3.60
2023-03-02T03:35:44.657Z,3.50
2023-03-02T03:36:18.158Z,3.50
2023-03-02T03:36:50.424Z,3.40
2023-03-02T03:37:22.268Z,3.40
2023-03-02T03:37:55.158Z,3.40
2023-03-02T03:38:27.274Z,3.40
2023-03-02T03:39:00.223Z,3.40
2023-03-02T03:39:33.099Z,3.60
2023-03-02T03:40:06.963Z,3.50
2023-03-02T03:40:38.782Z,3.40
2023-03-02T03:41:11.600Z,3.40
2023-03-02T03:41:44.495Z,3.40
2023-03-02T03:42:18.073Z,3.40
2023-03-02T03:42:50.894Z,3.40
2023-03-02T03:43:22.706Z,3.40
2023-03-02T03:43:55.156Z,3.40
2023-03-02T03:44:28.320Z,3.40
2023-03-02T03:45:01.020Z,3.40
2023-03-02T03:45:32.837Z,3.40
2023-03-02T03:46:05.888Z,3.40
2023-03-02T03:46:38.054Z,3.40
2023-03-02T03:47:09.848Z,3.40
2023-03-02T03:47:41.668Z,3.40
2023-03-02T03:48:14.403Z,3.40
2023-03-02T03:48:46.484Z,3.40
2023-03-02T03:49:18.458Z,3.40
2023-03-02T03:49:51.205Z,3.40
2023-03-02T03:50:23.491Z,3.50
2023-03-02T03:50:55.252Z,3.40
2023-03-02T03:51:28.207Z,3.50
2023-03-02T03:52:00.010Z,3.40
2023-03-02T03:52:32.036Z,3.40
2023-03-02T03:53:04.960Z,3.30
2023-03-02T03:53:37.258Z,3.30
2023-03-02T03:54:09.468Z,3.30
2023-03-02T03:54:42.290Z,3.30
2023-03-02T03:55:14.743Z,3.30
2023-03-02T03:55:46.566Z,3.30
2023-03-02T03:56:19.332Z,3.30
2023-03-02T03:56:51.200Z,3.30
2023-03-02T03:57:24.427Z,3.30
2023-03-02T03:57:57.255Z,3.40
2023-03-02T03:58:29.143Z,3.40
2023-03-02T03:59:06.347Z,3.40
2023-03-02T03:59:39.113Z,3.40
2023-03-02T04:00:14.907Z,3.40
2023-03-02T04:00:47.607Z,3.40
2023-03-02T04:01:20.438Z,3.40
2023-03-02T04:01:55.157Z,3.40
2023-03-02T04:02:27.285Z,3.40
2023-03-02T04:03:00.311Z,3.40
2023-03-02T04:03:32.413Z,3.40
2023-03-02T04:04:05.922Z,3.40
2023-03-02T04:04:38.858Z,3.40
2023-03-02T04:05:12.137Z,3.40
2023-03-02T04:05:44.016Z,3.40
2023-03-02T04:06:18.948Z,3.40
2023-03-02T04:06:51.433Z,3.30
2023-03-02T04:07:23.362Z,3.30
2023-03-02T04:07:56.231Z,3.30
2023-03-02T04:08:28.128Z,3.20
2023-03-02T04:09:04.491Z,3.20
2023-03-02T04:09:37.897Z,3.20
2023-03-02T04:10:12.232Z,3.10
2023-03-02T04:10:44.130Z,3.10
2023-03-02T04:11:16.899Z,3.10
2023-03-02T04:11:50.930Z,3.10
2023-03-02T04:12:24.045Z,3.10
2023-03-02T04:12:57.166Z,3.10
2023-03-02T04:13:28.988Z,3.20
2023-03-02T04:14:01.054Z,3.20
2023-03-02T04:14:33.934Z,3.20
2023-03-02T04:15:10.217Z,3.20
2023-03-02T04:15:42.219Z,3.30
2023-03-02T04:16:15.140Z,3.20
2023-03-02T04:16:47.838Z,3.20
2023-03-02T04:17:19.729Z,3.30
2023-03-02T04:17:53.342Z,3.30
2023-03-02T04:18:25.171Z,3.30
2023-03-02T04:18:57.505Z,3.30
2023-03-02T04:19:30.329Z,3.30
2023-03-02T04:20:02.170Z,3.30
2023-03-02T04:20:34.023Z,3.30
2023-03-02T04:21:07.047Z,3.30
2023-03-02T04:21:39.855Z,3.30
2023-03-02T04:22:11.680Z,3.30
2023-03-02T04:22:45.908Z,3.30
2023-03-02T04:23:17.709Z,3.30
2023-03-02T04:23:50.124Z,3.30
2023-03-02T04:24:24.015Z,3.30
2023-03-02T04:24:55.814Z,3.10
2023-03-02T04:25:30.502Z,3.20
2023-03-02T04:26:05.015Z,3.20
2023-03-02T04:26:38.785Z,3.20
2023-03-02T04:27:10.629Z,3.10
2023-03-02T04:27:44.745Z,3.10
2023-03-02T04:28:17.590Z,3.10
2023-03-02T04:28:50.636Z,3.10
2023-03-02T04:29:23.616Z,3.10
2023-03-02T04:29:55.426Z,3.10
2023-03-02T04:30:27.855Z,3.10
2023-03-02T04:31:00.660Z,3.40
2023-03-02T04:31:32.934Z,3.20
2023-03-02T04:32:05.488Z,3.20
2023-03-02T04:32:37.327Z,3.20
2023-03-02T04:33:10.261Z,3.20
2023-03-02T04:33:42.048Z,3.10
2023-03-02T04:34:13.822Z,3.10
2023-03-02T04:34:46.597Z,3.10
2023-03-02T04:35:18.589Z,3.20
2023-03-02T04:35:50.559Z,3.20
2023-03-02T04:36:23.380Z,3.20
2023-03-02T04:36:55.846Z,3.20
2023-03-02T04:37:27.692Z,3.10
2023-03-02T04:38:00.638Z,3.10
2023-03-02T04:38:32.451Z,3.10
2023-03-02T04:39:06.055Z,3.10
2023-03-02T04:39:38.842Z,3.10
2023-03-02T04:40:13.167Z,3.20
2023-03-02T04:40:46.023Z,3.20
2023-03-02T04:41:19.318Z,3.20
2023-03-02T04:41:52.463Z,3.20
2023-03-02T04:42:24.335Z,3.10
2023-03-02T04:42:58.454Z,3.10
2023-03-02T04:43:30.318Z,3.10
2023-03-02T04:44:02.221Z,3.10
2023-03-02T04:44:35.015Z,3.10
2023-03-02T04:45:08.035Z,3.00
2023-03-02T04:45:40.561Z,3.00
2023-03-02T04:46:16.325Z,3.00
2023-03-02T04:46:48.881Z,3.00
2023-03-02T04:47:21.925Z,2.90
2023-03-02T04:47:53.735Z,2.90
2023-03-02T04:48:25.695Z,3.00
2023-03-02T04:48:58.468Z,3.00
2023-03-02T04:49:30.258Z,3.00
2023-03-02T04:50:02.281Z,2.90
2023-03-02T04:50:35.331Z,2.90
2023-03-02T04:51:07.239Z,2.90
2023-03-02T04:51:42.140Z,2.90
2023-03-02T04:52:14.918Z,2.80
2023-03-02T04:52:46.835Z,2.80
2023-03-02T04:53:18.700Z,2.90
2023-03-02T04:53:51.964Z,2.80
2023-03-02T04:54:25.936Z,2.80
2023-03-02T04:54:57.812Z,2.80
2023-03-02T04:55:30.806Z,2.80
2023-03-02T04:56:02.698Z,2.80
2023-03-02T04:56:35.098Z,2.80
2023-03-02T04:57:08.404Z,2.80
2023-03-02T04:57:40.252Z,2.80
2023-03-02T04:58:14.491Z,2.70
2023-03-02T04:58:46.453Z,2.80
2023-03-02T04:59:22.264Z,2.70
2023-03-02T04:59:55.098Z,2.70
2023-03-02T05:00:28.704Z,2.70
2023-03-02T05:01:02.244Z,2.80
2023-03-02T05:01:35.244Z,2.70
2023-03-02T05:02:07.094Z,2.80
2023-03-02T05:02:39.283Z,2.80
2023-03-02T05:03:12.153Z,2.80
2023-03-02T05:03:44.035Z,2.80
2023-03-02T05:04:16.032Z,2.80
2023-03-02T05:04:48.970Z,2.80
2023-03-02T05:05:24.722Z,2.80
2023-03-02T05:05:57.748Z,2.80
2023-03-02T05:06:30.898Z,2.80
2023-03-02T05:07:02.976Z,2.80
2023-03-02T05:07:34.834Z,2.80
2023-03-02T05:08:07.586Z,2.80
2023-03-02T05:08:39.867Z,2.80
2023-03-02T05:09:12.098Z,2.80
2023-03-02T05:09:44.841Z,2.80
2023-03-02T05:10:17.675Z,2.80
2023-03-02T05:10:49.499Z,2.90
2023-03-02T05:11:24.198Z,2.90
2023-03-02T05:11:57.775Z,2.90
2023-03-02T05:12:29.555Z,2.90
2023-03-02T05:13:02.692Z,2.90
2023-03-02T05:13:37.373Z,2.90
2023-03-02T05:14:11.751Z,2.90
2023-03-02T05:14:45.682Z,2.90
2023-03-02T05:15:18.129Z,2.90
2023-03-02T05:15:52.831Z,2.90
2023-03-02T05:16:26.270Z,2.90
2023-03-02T05:16:58.528Z,2.90
2023-03-02T05:17:31.352Z,2.90
2023-03-02T05:18:05.253Z,3.00
2023-03-02T05:18:37.098Z,3.00
2023-03-02T05:19:12.431Z,3.00
2023-03-02T05:19:44.262Z,3.00
2023-03-02T05:20:16.380Z,3.10
2023-03-02T05:20:50.241Z,3.10
2023-03-02T05:21:22.562Z,3.10
2023-03-02T05:21:54.396Z,3.10
2023-03-02T05:22:27.197Z,3.10
2023-03-02T05:23:01.204Z,3.10
2023-03-02T05:23:33.923Z,3.10
2023-03-02T05:24:07.411Z,3.20
2023-03-02T05:24:39.242Z,3.20
2023-03-02T05:25:11.834Z,3.20
2023-03-02T05:25:44.629Z,3.20
2023-03-02T05:26:16.704Z,3.20
2023-03-02T05:26:48.533Z,3.20
2023-03-02T05:27:20.373Z,3.20
2023-03-02T05:27:53.676Z,3.20
2023-03-02T05:28:26.349Z,3.20
2023-03-02T05:28:59.520Z,3.20
2023-03-02T05:29:32.424Z,3.20
2023-03-02T05:30:05.052Z,3.20
2023-03-02T05:30:37.587Z,3.30
2023-03-02T05:31:15.460Z,3.30
2023-03-02T05:31:49.800Z,3.30
2023-03-02T05:32:21.732Z,3.30
2023-03-02T05:32:55.309Z,3.30
2023-03-02T05:33:27.331Z,3.30
2023-03-02T05:33:59.151Z,3.30
2023-03-02T05:34:31.913Z,3.30
2023-03-02T05:35:04.075Z,3.30
2023-03-02T05:35:36.485Z,3.30
2023-03-02T05:36:08.441Z,3.30
2023-03-02T05:36:41.296Z,3.40
2023-03-02T05:37:13.522Z,3.40
2023-03-02T05:37:45.507Z,3.30
2023-03-02T05:38:18.470Z,3.30
2023-03-02T05:38:50.393Z,3.20
2023-03-02T05:39:22.171Z,3.20
2023-03-02T05:39:54.978Z,3.20
2023-03-02T05:40:26.944Z,3.20
2023-03-02T05:40:58.832Z,3.20
2023-03-02T05:41:31.745Z,3.20
2023-03-02T05:42:03.706Z,3.20
2023-03-02T05:42:35.804Z,3.20
2023-03-02T05:43:09.212Z,3.20
2023-03-02T05:43:41.061Z,3.20
2023-03-02T05:44:14.216Z,3.20
2023-03-02T05:44:46.989Z,3.20
2023-03-02T05:45:22.384Z,3.20
2023-03-02T05:45:55.910Z,3.20
2023-03-02T05:46:29.176Z,3.20
2023-03-02T05:47:00.973Z,3.20
2023-03-02T05:47:32.864Z,3.10
2023-03-02T05:48:06.728Z,3.10
2023-03-02T05:48:38.550Z,3.20
2023-03-02T05:49:11.507Z,3.20
2023-03-02T05:49:43.348Z,3.20
2023-03-02T05:50:15.320Z,3.20
2023-03-02T05:50:48.152Z,3.20
2023-03-02T05:51:19.941Z,3.20
2023-03-02T05:51:51.778Z,3.20
2023-03-02T05:52:23.571Z,3.20
2023-03-02T05:52:56.353Z,3.30
2023-03-02T05:53:28.177Z,3.30
2023-03-02T05:54:00.290Z,3.30
2023-03-02T05:54:33.140Z,3.30
2023-03-02T05:55:05.728Z,3.30
2023-03-02T05:55:37.614Z,3.40
2023-03-02T05:56:10.738Z,3.40
2023-03-02T05:56:42.577Z,3.40
2023-03-02T05:57:14.378Z,3.50
2023-03-02T05:57:49.142Z,3.50
2023-03-02T05:58:21.493Z,3.50
2023-03-02T05:58:53.722Z,3.50
2023-03-02T05:59:27.879Z,3.50
2023-03-02T05:59:59.747Z,3.50
2023-03-02T06:00:31.538Z,3.50
2023-03-02T06:01:09.496Z,3.50
2023-03-02T06:01:41.366Z,3.50
2023-03-02T06:02:13.633Z,3.50
2023-03-02T06:02:46.556Z,3.50
2023-03-02T06:03:18.566Z,3.50
2023-03-02T06:03:50.487Z,3.50
2023-03-02T06:04:23.247Z,3.50
2023-03-02T06:04:55.124Z,3.50
2023-03-02T06:05:27.094Z,3.50
2023-03-02T06:05:59.890Z,3.50
2023-03-02T06:06:34.039Z,3.50
2023-03-02T06:07:06.262Z,3.50
2023-03-02T06:07:39.630Z,3.50
2023-03-02T06:08:11.503Z,3.50
2023-03-02T06:08:44.177Z,3.50
2023-03-02T06:09:16.953Z,3.50
2023-03-02T06:09:49.465Z,3.50
2023-03-02T06:10:22.077Z,3.50
2023-03-02T06:10:57.015Z,3.50
2023-03-02T06:11:30.122Z,3.50
2023-03-02T06:12:01.979Z,3.60
2023-03-02T06:12:34.914Z,3.50
2023-03-02T06:13:06.789Z,3.60
2023-03-02T06:13:40.351Z,3.60
2023-03-02T06:14:12.177Z,3.60
2023-03-02T06:14:46.812Z,3.60
2023-03-02T06:15:20.206Z,3.60
2023-03-02T06:15:52.253Z,3.60
2023-03-02T06:16:24.118Z,3.60
2023-03-02T06:16:56.979Z,3.60
2023-03-02T06:17:28.822Z,3.60
2023-03-02T06:18:00.979Z,3.60
2023-03-02T06:18:33.917Z,3.60
2023-03-02T06:19:05.822Z,3.40
2023-03-02T06:19:37.793Z,3.50
2023-03-02T06:20:12.092Z,3.50
2023-03-02T06:20:44.069Z,3.50
2023-03-02T06:21:15.933Z,3.50
2023-03-02T06:21:48.706Z,3.50
2023-03-02T06:22:20.584Z,3.50
2023-03-02T06:22:53.494Z,3.60
2023-03-02T06:23:25.329Z,3.60
2023-03-02T06:23:58.074Z,3.60
2023-03-02T06:24:29.865Z,3.60
2023-03-02T06:25:01.748Z,3.60
2023-03-02T06:25:35.858Z,3.70
2023-03-02T06:26:08.956Z,3.70
2023-03-02T06:26:40.931Z,3.70
2023-03-02T06:27:14.029Z,3.70
2023-03-02T06:27:46.058Z,3.70
2023-03-02T06:28:19.827Z,3.70
2023-03-02T06:28:54.084Z,3.70
2023-03-02T06:29:26.144Z,3.70
2023-03-02T06:29:59.308Z,3.70
2023-03-02T06:30:32.190Z,3.70
2023-03-02T06:31:04.662Z,3.70
2023-03-02T06:31:36.543Z,3.70
2023-03-02T06:32:10.420Z,3.70
2023-03-02T06:32:42.823Z,3.70
2023-03-02T06:33:15.790Z,3.80
2023-03-02T06:33:48.565Z,3.80
2023-03-02T06:34:20.430Z,3.80
2023-03-02T06:34:52.267Z,3.80
2023-03-02T06:35:25.164Z,3.80
2023-03-02T06:35:57.191Z,3.80
2023-03-02T06:36:29.497Z,3.80
2023-03-02T06:37:02.303Z,3.80
2023-03-02T06:37:34.256Z,3.80
2023-03-02T06:38:06.056Z,3.80
2023-03-02T06:38:39.178Z,3.80
2023-03-02T06:39:15.787Z,3.80
2023-03-02T06:39:47.589Z,3.80
2023-03-02T06:40:21.571Z,3.80
2023-03-02T06:40:53.448Z,3.80
2023-03-02T06:41:25.692Z,3.80
2023-03-02T06:41:59.348Z,3.80
2023-03-02T06:42:31.171Z,3.80
2023-03-02T06:43:04.329Z,3.80
2023-03-02T06:43:37.292Z,3.80
2023-03-02T06:44:09.403Z,3.80
2023-03-02T06:44:41.248Z,3.80
2023-03-02T06:45:15.368Z,3.80
2023-03-02T06:45:47.211Z,3.90
2023-03-02T06:46:19.163Z,3.90
2023-03-02T06:46:51.952Z,3.80
2023-03-02T06:47:24.376Z,3.90
2023-03-02T06:47:56.214Z,3.80
2023-03-02T06:48:29.080Z,3.90
2023-03-02T06:49:00.883Z,3.90
2023-03-02T06:49:32.728Z,3.90
2023-03-02T06:50:07.182Z,3.80
2023-03-02T06:50:38.975Z,3.90
2023-03-02T06:51:12.509Z,3.90
2023-03-02T06:51:45.294Z,3.90
2023-03-02T06:52:17.463Z,3.90
2023-03-02T06:52:49.290Z,3.90
2023-03-02T06:53:23.296Z,3.90
2023-03-02T06:53:55.096Z,3.90
2023-03-02T06:54:26.918Z,3.90
2023-03-02T06:54:59.742Z,3.90
2023-03-02T06:55:31.566Z,4.00
2023-03-02T06:56:04.605Z,3.90
2023-03-02T06:56:36.411Z,4.00
2023-03-02T06:57:08.628Z,4.00
2023-03-02T06:57:41.397Z,3.90
2023-03-02T06:58:13.186Z,4.00
2023-03-02T06:58:46.040Z,3.90
2023-03-02T06:59:17.838Z,3.90
2023-03-02T06:59:49.622Z,3.90
2023-03-02T07:00:28.178Z,4.00
2023-03-02T07:01:00.111Z,4.00
2023-03-02T07:01:35.874Z,4.00
2023-03-02T07:02:11.200Z,4.00
2023-03-02T07:02:44.045Z,4.00
2023-03-02T07:03:15.987Z,4.00
2023-03-02T07:03:48.818Z,4.00
2023-03-02T07:04:20.745Z,4.00
2023-03-02T07:04:52.571Z,4.00
2023-03-02T07:05:25.749Z,4.00
2023-03-02T07:05:57.536Z,4.00
2023-03-02T07:06:29.369Z,4.00
2023-03-02T07:07:02.134Z,4.10
2023-03-02T07:07:33.985Z,4.10
2023-03-02T07:08:05.874Z,4.10
2023-03-02T07:08:38.729Z,4.10
2023-03-02T07:09:10.548Z,4.10
2023-03-02T07:09:42.343Z,4.10
2023-03-02T07:10:15.309Z,4.10
2023-03-02T07:10:47.157Z,4.10
2023-03-02T07:11:19.009Z,4.10
2023-03-02T07:11:51.883Z,4.10
2023-03-02T07:12:23.699Z,4.10
2023-03-02T07:12:55.751Z,4.10
2023-03-02T07:13:30.853Z,4.10
2023-03-02T07:14:03.603Z,4.20
2023-03-02T07:14:35.756Z,4.20
2023-03-02T07:15:11.037Z,4.20
2023-03-02T07:15:44.209Z,4.20
2023-03-02T07:16:17.079Z,4.20
2023-03-02T07:16:48.973Z,4.20
2023-03-02T07:17:20.867Z,4.20
2023-03-02T07:17:53.649Z,4.20
2023-03-02T07:18:25.461Z,4.30
2023-03-02T07:18:57.405Z,4.30
2023-03-02T07:19:30.174Z,4.30
2023-03-02T07:20:02.268Z,4.30
2023-03-02T07:20:34.861Z,4.30
2023-03-02T07:21:07.844Z,4.30
2023-03-02T07:21:39.903Z,4.30
2023-03-02T07:22:11.754Z,4.30
2023-03-02T07:22:45.192Z,4.30
2023-03-02T07:23:17.016Z,4.30